sensor_id;sensor_type;location;lat;lon;timestamp;P1;durP1;ratioP1;P2;durP2;ratioP2
34737;SDS011;39910;47.154;27.614;2024-03-25T00:01:20;10.23;;;9.73;;
34737;SDS011;39910;47.154;27.614;2024-03-25T00:03:45;10.43;;;9.93;;
34737;SDS011;39910;47.154;27.614;2024-03-25T00:06:11;10.85;;;10.35;;
34737;SDS011;39910;47.154;27.614;2024-03-25T00:08:36;10.30;;;9.80;;
34737;SDS011;39910;47.154;27.614;2024-03-25T00:11:02;9.85;;;9.45;;
34737;SDS011;39910;47.154;27.614;2024-03-25T00:13:27;11.00;;;10.50;;
34737;SDS011;39910;47.154;27.614;2024-03-25T00:15:52;10.20;;;9.70;;
34737;SDS011;39910;47.154;27.614;2024-03-25T00:18:18;10.20;;;9.70;;
34737;SDS011;39910;47.154;27.614;2024-03-25T00:20:43;9.90;;;9.50;;
34737;SDS011;39910;47.154;27.614;2024-03-25T00:23:09;10.00;;;9.60;;
34737;SDS011;39910;47.154;27.614;2024-03-25T00:25:34;10.32;;;9.82;;
34737;SDS011;39910;47.154;27.614;2024-03-25T00:28:00;9.90;;;9.50;;
34737;SDS011;39910;47.154;27.614;2024-03-25T00:30:25;9.82;;;9.43;;
34737;SDS011;39910;47.154;27.614;2024-03-25T00:32:50;10.57;;;10.07;;
34737;SDS011;39910;47.154;27.614;2024-03-25T00:35:16;10.48;;;9.98;;
34737;SDS011;39910;47.154;27.614;2024-03-25T00:37:43;10.00;;;9.60;;
34737;SDS011;39910;47.154;27.614;2024-03-25T00:40:08;9.82;;;9.43;;
34737;SDS011;39910;47.154;27.614;2024-03-25T00:42:33;10.02;;;9.63;;
34737;SDS011;39910;47.154;27.614;2024-03-25T00:44:59;10.27;;;9.77;;
34737;SDS011;39910;47.154;27.614;2024-03-25T00:47:25;10.00;;;9.60;;
34737;SDS011;39910;47.154;27.614;2024-03-25T00:49:51;10.13;;;9.70;;
34737;SDS011;39910;47.154;27.614;2024-03-25T00:52:16;9.95;;;9.55;;
34737;SDS011;39910;47.154;27.614;2024-03-25T00:54:42;10.35;;;9.85;;
34737;SDS011;39910;47.154;27.614;2024-03-25T00:57:07;10.27;;;9.77;;
34737;SDS011;39910;47.154;27.614;2024-03-25T00:59:33;9.80;;;9.40;;
34737;SDS011;39910;47.154;27.614;2024-03-25T01:01:58;10.35;;;9.85;;
34737;SDS011;39910;47.154;27.614;2024-03-25T01:04:23;9.90;;;9.50;;
34737;SDS011;39910;47.154;27.614;2024-03-25T01:06:49;9.90;;;9.50;;
34737;SDS011;39910;47.154;27.614;2024-03-25T01:09:14;10.15;;;9.68;;
34737;SDS011;39910;47.154;27.614;2024-03-25T01:11:41;10.30;;;9.80;;
34737;SDS011;39910;47.154;27.614;2024-03-25T01:14:06;10.35;;;9.85;;
34737;SDS011;39910;47.154;27.614;2024-03-25T01:16:32;10.18;;;9.68;;
34737;SDS011;39910;47.154;27.614;2024-03-25T01:18:57;10.10;;;9.60;;
34737;SDS011;39910;47.154;27.614;2024-03-25T01:21:24;9.80;;;9.40;;
34737;SDS011;39910;47.154;27.614;2024-03-25T01:23:49;10.15;;;9.65;;
34737;SDS011;39910;47.154;27.614;2024-03-25T01:26:15;9.80;;;9.40;;
34737;SDS011;39910;47.154;27.614;2024-03-25T01:28:41;10.02;;;9.63;;
34737;SDS011;39910;47.154;27.614;2024-03-25T01:31:06;10.13;;;9.65;;
34737;SDS011;39910;47.154;27.614;2024-03-25T01:33:32;9.90;;;9.50;;
34737;SDS011;39910;47.154;27.614;2024-03-25T01:35:57;9.82;;;9.43;;
34737;SDS011;39910;47.154;27.614;2024-03-25T01:38:23;9.85;;;9.45;;
34737;SDS011;39910;47.154;27.614;2024-03-25T01:40:48;9.90;;;9.50;;
34737;SDS011;39910;47.154;27.614;2024-03-25T01:43:14;10.30;;;9.80;;
34737;SDS011;39910;47.154;27.614;2024-03-25T01:45:39;10.48;;;9.98;;
34737;SDS011;39910;47.154;27.614;2024-03-25T01:48:06;10.40;;;9.90;;
34737;SDS011;39910;47.154;27.614;2024-03-25T01:50:33;10.00;;;9.60;;
34737;SDS011;39910;47.154;27.614;2024-03-25T01:53:00;10.05;;;9.65;;
34737;SDS011;39910;47.154;27.614;2024-03-25T01:55:26;10.48;;;9.98;;
34737;SDS011;39910;47.154;27.614;2024-03-25T01:57:52;10.27;;;9.77;;
34737;SDS011;39910;47.154;27.614;2024-03-25T02:00:17;10.27;;;9.77;;
34737;SDS011;39910;47.154;27.614;2024-03-25T02:02:43;10.00;;;9.60;;
34737;SDS011;39910;47.154;27.614;2024-03-25T02:05:13;10.45;;;9.95;;
34737;SDS011;39910;47.154;27.614;2024-03-25T02:07:38;10.50;;;10.00;;
34737;SDS011;39910;47.154;27.614;2024-03-25T02:10:06;9.80;;;9.40;;
34737;SDS011;39910;47.154;27.614;2024-03-25T02:12:31;10.15;;;9.65;;
34737;SDS011;39910;47.154;27.614;2024-03-25T02:14:58;10.43;;;9.93;;
34737;SDS011;39910;47.154;27.614;2024-03-25T02:17:23;10.20;;;9.70;;
34737;SDS011;39910;47.154;27.614;2024-03-25T02:19:49;9.70;;;9.30;;
34737;SDS011;39910;47.154;27.614;2024-03-25T02:22:15;10.68;;;10.18;;
34737;SDS011;39910;47.154;27.614;2024-03-25T02:24:40;10.50;;;10.00;;
34737;SDS011;39910;47.154;27.614;2024-03-25T02:27:06;10.23;;;9.73;;
34737;SDS011;39910;47.154;27.614;2024-03-25T02:29:36;9.75;;;9.35;;
34737;SDS011;39910;47.154;27.614;2024-03-25T02:32:01;10.57;;;10.07;;
34737;SDS011;39910;47.154;27.614;2024-03-25T02:34:27;10.50;;;10.00;;
34737;SDS011;39910;47.154;27.614;2024-03-25T02:36:52;10.40;;;9.90;;
34737;SDS011;39910;47.154;27.614;2024-03-25T02:39:18;10.25;;;9.75;;
34737;SDS011;39910;47.154;27.614;2024-03-25T02:41:44;10.00;;;9.60;;
34737;SDS011;39910;47.154;27.614;2024-03-25T02:44:10;10.60;;;10.10;;
34737;SDS011;39910;47.154;27.614;2024-03-25T02:46:35;10.00;;;9.60;;
34737;SDS011;39910;47.154;27.614;2024-03-25T02:49:00;10.07;;;9.63;;
34737;SDS011;39910;47.154;27.614;2024-03-25T02:51:26;10.10;;;9.60;;
34737;SDS011;39910;47.154;27.614;2024-03-25T02:53:51;10.23;;;9.73;;
34737;SDS011;39910;47.154;27.614;2024-03-25T02:56:17;9.80;;;9.40;;
34737;SDS011;39910;47.154;27.614;2024-03-25T02:58:42;10.30;;;9.80;;
34737;SDS011;39910;47.154;27.614;2024-03-25T03:01:07;10.45;;;9.95;;
34737;SDS011;39910;47.154;27.614;2024-03-25T03:03:33;10.32;;;9.82;;
34737;SDS011;39910;47.154;27.614;2024-03-25T03:05:58;10.30;;;9.80;;
34737;SDS011;39910;47.154;27.614;2024-03-25T03:08:24;9.88;;;9.48;;
34737;SDS011;39910;47.154;27.614;2024-03-25T03:10:49;10.40;;;9.90;;
34737;SDS011;39910;47.154;27.614;2024-03-25T03:13:14;10.23;;;9.73;;
34737;SDS011;39910;47.154;27.614;2024-03-25T03:15:43;10.15;;;9.68;;
34737;SDS011;39910;47.154;27.614;2024-03-25T03:18:09;10.40;;;9.90;;
34737;SDS011;39910;47.154;27.614;2024-03-25T03:20:35;9.90;;;9.50;;
34737;SDS011;39910;47.154;27.614;2024-03-25T03:23:00;10.20;;;9.70;;
34737;SDS011;39910;47.154;27.614;2024-03-25T03:25:25;10.02;;;9.63;;
34737;SDS011;39910;47.154;27.614;2024-03-25T03:27:51;10.20;;;9.70;;
34737;SDS011;39910;47.154;27.614;2024-03-25T03:30:16;10.18;;;9.73;;
34737;SDS011;39910;47.154;27.614;2024-03-25T03:32:42;10.15;;;9.65;;
34737;SDS011;39910;47.154;27.614;2024-03-25T03:35:07;9.77;;;9.38;;
34737;SDS011;39910;47.154;27.614;2024-03-25T03:37:33;10.45;;;9.95;;
34737;SDS011;39910;47.154;27.614;2024-03-25T03:39:58;10.30;;;9.80;;
34737;SDS011;39910;47.154;27.614;2024-03-25T03:42:23;10.15;;;9.65;;
34737;SDS011;39910;47.154;27.614;2024-03-25T03:44:49;9.90;;;9.50;;
34737;SDS011;39910;47.154;27.614;2024-03-25T03:47:14;9.63;;;9.23;;
34737;SDS011;39910;47.154;27.614;2024-03-25T03:49:40;9.90;;;9.50;;
34737;SDS011;39910;47.154;27.614;2024-03-25T03:52:05;9.77;;;9.38;;
34737;SDS011;39910;47.154;27.614;2024-03-25T03:54:31;9.70;;;9.30;;
34737;SDS011;39910;47.154;27.614;2024-03-25T03:56:56;9.70;;;9.30;;
34737;SDS011;39910;47.154;27.614;2024-03-25T03:59:21;10.13;;;9.63;;
34737;SDS011;39910;47.154;27.614;2024-03-25T04:01:47;10.00;;;9.60;;
34737;SDS011;39910;47.154;27.614;2024-03-25T04:04:12;10.55;;;10.05;;
34737;SDS011;39910;47.154;27.614;2024-03-25T04:06:37;10.43;;;9.93;;
34737;SDS011;39910;47.154;27.614;2024-03-25T04:09:06;9.82;;;9.43;;
34737;SDS011;39910;47.154;27.614;2024-03-25T04:11:31;10.00;;;9.55;;
34737;SDS011;39910;47.154;27.614;2024-03-25T04:13:57;10.77;;;10.27;;
34737;SDS011;39910;47.154;27.614;2024-03-25T04:16:22;10.20;;;9.70;;
34737;SDS011;39910;47.154;27.614;2024-03-25T04:18:48;10.23;;;9.73;;
34737;SDS011;39910;47.154;27.614;2024-03-25T04:21:13;9.95;;;9.55;;
34737;SDS011;39910;47.154;27.614;2024-03-25T04:23:39;10.40;;;9.90;;
34737;SDS011;39910;47.154;27.614;2024-03-25T04:26:06;10.50;;;10.00;;
34737;SDS011;39910;47.154;27.614;2024-03-25T04:28:32;9.95;;;9.50;;
34737;SDS011;39910;47.154;27.614;2024-03-25T04:30:58;10.25;;;9.75;;
34737;SDS011;39910;47.154;27.614;2024-03-25T04:33:23;9.95;;;9.55;;
34737;SDS011;39910;47.154;27.614;2024-03-25T04:35:48;10.27;;;9.77;;
34737;SDS011;39910;47.154;27.614;2024-03-25T04:38:17;9.90;;;9.50;;
34737;SDS011;39910;47.154;27.614;2024-03-25T04:40:42;9.90;;;9.50;;
34737;SDS011;39910;47.154;27.614;2024-03-25T04:43:09;10.07;;;9.57;;
34737;SDS011;39910;47.154;27.614;2024-03-25T04:45:34;10.40;;;9.90;;
34737;SDS011;39910;47.154;27.614;2024-03-25T04:48:00;9.90;;;9.50;;
34737;SDS011;39910;47.154;27.614;2024-03-25T04:50:25;10.40;;;9.90;;
34737;SDS011;39910;47.154;27.614;2024-03-25T04:52:51;10.98;;;10.48;;
34737;SDS011;39910;47.154;27.614;2024-03-25T04:55:16;10.00;;;9.57;;
34737;SDS011;39910;47.154;27.614;2024-03-25T04:57:42;10.50;;;10.00;;
34737;SDS011;39910;47.154;27.614;2024-03-25T05:00:07;9.88;;;9.48;;
34737;SDS011;39910;47.154;27.614;2024-03-25T05:02:36;10.18;;;9.68;;
34737;SDS011;39910;47.154;27.614;2024-03-25T05:05:02;10.68;;;10.18;;
34737;SDS011;39910;47.154;27.614;2024-03-25T05:07:27;10.15;;;9.70;;
34737;SDS011;39910;47.154;27.614;2024-03-25T05:09:53;10.82;;;10.32;;
34737;SDS011;39910;47.154;27.614;2024-03-25T05:12:21;10.25;;;9.75;;
34737;SDS011;39910;47.154;27.614;2024-03-25T05:14:46;10.43;;;9.93;;
34737;SDS011;39910;47.154;27.614;2024-03-25T05:17:12;10.50;;;10.00;;
34737;SDS011;39910;47.154;27.614;2024-03-25T05:19:38;10.73;;;10.23;;
34737;SDS011;39910;47.154;27.614;2024-03-25T05:22:03;10.63;;;10.13;;
34737;SDS011;39910;47.154;27.614;2024-03-25T05:24:28;10.25;;;9.75;;
34737;SDS011;39910;47.154;27.614;2024-03-25T05:26:54;10.43;;;9.93;;
34737;SDS011;39910;47.154;27.614;2024-03-25T05:29:19;10.68;;;10.18;;
34737;SDS011;39910;47.154;27.614;2024-03-25T05:31:57;10.80;;;10.30;;
34737;SDS011;39910;47.154;27.614;2024-03-25T05:34:23;10.48;;;9.98;;
34737;SDS011;39910;47.154;27.614;2024-03-25T05:36:49;10.75;;;10.25;;
34737;SDS011;39910;47.154;27.614;2024-03-25T05:39:14;10.23;;;9.73;;
34737;SDS011;39910;47.154;27.614;2024-03-25T05:41:40;10.40;;;9.90;;
34737;SDS011;39910;47.154;27.614;2024-03-25T05:44:05;10.93;;;10.43;;
34737;SDS011;39910;47.154;27.614;2024-03-25T05:46:31;10.10;;;9.60;;
34737;SDS011;39910;47.154;27.614;2024-03-25T05:48:56;10.43;;;9.93;;
34737;SDS011;39910;47.154;27.614;2024-03-25T05:51:21;10.95;;;10.45;;
34737;SDS011;39910;47.154;27.614;2024-03-25T05:53:47;10.88;;;10.38;;
34737;SDS011;39910;47.154;27.614;2024-03-25T05:56:12;10.30;;;9.80;;
34737;SDS011;39910;47.154;27.614;2024-03-25T05:58:37;10.60;;;10.10;;
34737;SDS011;39910;47.154;27.614;2024-03-25T06:01:03;11.00;;;10.50;;
34737;SDS011;39910;47.154;27.614;2024-03-25T06:03:29;10.18;;;9.68;;
34737;SDS011;39910;47.154;27.614;2024-03-25T06:05:55;10.57;;;10.07;;
34737;SDS011;39910;47.154;27.614;2024-03-25T06:08:20;10.50;;;10.00;;
34737;SDS011;39910;47.154;27.614;2024-03-25T06:10:51;10.57;;;10.07;;
34737;SDS011;39910;47.154;27.614;2024-03-25T06:13:17;10.75;;;10.25;;
34737;SDS011;39910;47.154;27.614;2024-03-25T06:15:42;10.27;;;9.77;;
34737;SDS011;39910;47.154;27.614;2024-03-25T06:18:08;10.63;;;10.13;;
34737;SDS011;39910;47.154;27.614;2024-03-25T06:20:33;10.65;;;10.15;;
34737;SDS011;39910;47.154;27.614;2024-03-25T06:22:58;10.93;;;10.43;;
34737;SDS011;39910;47.154;27.614;2024-03-25T06:25:24;9.85;;;9.45;;
34737;SDS011;39910;47.154;27.614;2024-03-25T06:27:49;10.05;;;9.63;;
34737;SDS011;39910;47.154;27.614;2024-03-25T06:30:15;10.50;;;10.00;;
34737;SDS011;39910;47.154;27.614;2024-03-25T06:32:59;10.50;;;10.00;;
34737;SDS011;39910;47.154;27.614;2024-03-25T06:35:42;10.82;;;10.32;;
34737;SDS011;39910;47.154;27.614;2024-03-25T06:38:08;10.75;;;10.25;;
34737;SDS011;39910;47.154;27.614;2024-03-25T06:40:34;10.23;;;9.73;;
34737;SDS011;39910;47.154;27.614;2024-03-25T06:42:59;10.48;;;9.98;;
34737;SDS011;39910;47.154;27.614;2024-03-25T06:45:25;10.60;;;10.10;;
34737;SDS011;39910;47.154;27.614;2024-03-25T06:47:50;10.65;;;10.15;;
34737;SDS011;39910;47.154;27.614;2024-03-25T06:50:15;11.57;;;10.98;;
34737;SDS011;39910;47.154;27.614;2024-03-25T06:52:41;10.30;;;9.80;;
34737;SDS011;39910;47.154;27.614;2024-03-25T06:55:06;10.40;;;9.90;;
34737;SDS011;39910;47.154;27.614;2024-03-25T06:57:32;10.55;;;10.05;;
34737;SDS011;39910;47.154;27.614;2024-03-25T06:59:58;10.60;;;10.10;;
34737;SDS011;39910;47.154;27.614;2024-03-25T07:02:23;10.45;;;9.95;;
34737;SDS011;39910;47.154;27.614;2024-03-25T07:04:49;10.52;;;10.02;;
34737;SDS011;39910;47.154;27.614;2024-03-25T07:07:14;10.40;;;9.90;;
34737;SDS011;39910;47.154;27.614;2024-03-25T07:09:40;10.43;;;9.93;;
34737;SDS011;39910;47.154;27.614;2024-03-25T07:12:06;10.02;;;9.57;;
34737;SDS011;39910;47.154;27.614;2024-03-25T07:14:31;10.82;;;10.32;;
34737;SDS011;39910;47.154;27.614;2024-03-25T07:16:57;10.52;;;10.02;;
34737;SDS011;39910;47.154;27.614;2024-03-25T07:19:22;10.70;;;10.20;;
34737;SDS011;39910;47.154;27.614;2024-03-25T07:21:47;10.18;;;9.68;;
34737;SDS011;39910;47.154;27.614;2024-03-25T07:24:13;10.35;;;9.85;;
34737;SDS011;39910;47.154;27.614;2024-03-25T07:26:38;10.48;;;9.98;;
34737;SDS011;39910;47.154;27.614;2024-03-25T07:29:04;10.52;;;10.02;;
34737;SDS011;39910;47.154;27.614;2024-03-25T07:31:29;10.50;;;10.00;;
34737;SDS011;39910;47.154;27.614;2024-03-25T07:33:54;10.10;;;9.65;;
34737;SDS011;39910;47.154;27.614;2024-03-25T07:36:20;10.43;;;9.93;;
34737;SDS011;39910;47.154;27.614;2024-03-25T07:38:45;10.13;;;9.63;;
34737;SDS011;39910;47.154;27.614;2024-03-25T07:41:11;10.30;;;9.80;;
34737;SDS011;39910;47.154;27.614;2024-03-25T07:43:36;10.45;;;9.95;;
34737;SDS011;39910;47.154;27.614;2024-03-25T07:46:02;11.10;;;10.60;;
34737;SDS011;39910;47.154;27.614;2024-03-25T07:48:27;10.82;;;10.32;;
34737;SDS011;39910;47.154;27.614;2024-03-25T07:50:52;10.70;;;10.20;;
34737;SDS011;39910;47.154;27.614;2024-03-25T07:53:18;10.50;;;10.00;;
34737;SDS011;39910;47.154;27.614;2024-03-25T07:55:43;10.48;;;9.98;;
34737;SDS011;39910;47.154;27.614;2024-03-25T07:58:09;10.80;;;10.30;;
34737;SDS011;39910;47.154;27.614;2024-03-25T08:00:34;10.50;;;10.00;;
34737;SDS011;39910;47.154;27.614;2024-03-25T08:03:00;12.05;;;11.45;;
34737;SDS011;39910;47.154;27.614;2024-03-25T08:05:26;11.25;;;10.75;;
34737;SDS011;39910;47.154;27.614;2024-03-25T08:07:52;11.88;;;11.27;;
34737;SDS011;39910;47.154;27.614;2024-03-25T08:10:17;12.05;;;11.45;;
34737;SDS011;39910;47.154;27.614;2024-03-25T08:12:42;11.52;;;10.95;;
34737;SDS011;39910;47.154;27.614;2024-03-25T08:15:08;11.85;;;11.25;;
34737;SDS011;39910;47.154;27.614;2024-03-25T08:17:33;11.43;;;10.90;;
34737;SDS011;39910;47.154;27.614;2024-03-25T08:19:59;12.18;;;11.57;;
34737;SDS011;39910;47.154;27.614;2024-03-25T08:22:24;12.00;;;11.40;;
34737;SDS011;39910;47.154;27.614;2024-03-25T08:24:49;11.48;;;10.98;;
34737;SDS011;39910;47.154;27.614;2024-03-25T08:27:15;11.23;;;10.73;;
34737;SDS011;39910;47.154;27.614;2024-03-25T08:29:40;11.82;;;11.23;;
34737;SDS011;39910;47.154;27.614;2024-03-25T08:32:06;11.82;;;11.23;;
34737;SDS011;39910;47.154;27.614;2024-03-25T08:34:31;11.70;;;11.13;;
34737;SDS011;39910;47.154;27.614;2024-03-25T08:36:57;11.68;;;11.13;;
34737;SDS011;39910;47.154;27.614;2024-03-25T08:39:22;11.55;;;11.05;;
34737;SDS011;39910;47.154;27.614;2024-03-25T08:41:48;12.57;;;11.98;;
34737;SDS011;39910;47.154;27.614;2024-03-25T08:44:14;11.48;;;10.98;;
34737;SDS011;39910;47.154;27.614;2024-03-25T08:46:39;11.15;;;10.65;;
34737;SDS011;39910;47.154;27.614;2024-03-25T08:49:05;11.93;;;11.32;;
34737;SDS011;39910;47.154;27.614;2024-03-25T08:51:30;11.25;;;10.75;;
34737;SDS011;39910;47.154;27.614;2024-03-25T08:53:55;11.95;;;11.35;;
34737;SDS011;39910;47.154;27.614;2024-03-25T08:56:21;11.95;;;11.35;;
34737;SDS011;39910;47.154;27.614;2024-03-25T08:58:46;12.13;;;11.52;;
34737;SDS011;39910;47.154;27.614;2024-03-25T09:01:12;11.85;;;11.27;;
34737;SDS011;39910;47.154;27.614;2024-03-25T09:03:39;11.48;;;10.98;;
34737;SDS011;39910;47.154;27.614;2024-03-25T09:06:05;11.50;;;11.00;;
34737;SDS011;39910;47.154;27.614;2024-03-25T09:08:32;12.68;;;12.07;;
34737;SDS011;39910;47.154;27.614;2024-03-25T09:11:17;12.23;;;11.63;;
34737;SDS011;39910;47.154;27.614;2024-03-25T09:13:42;12.30;;;11.70;;
34737;SDS011;39910;47.154;27.614;2024-03-25T09:16:08;13.15;;;12.55;;
34737;SDS011;39910;47.154;27.614;2024-03-25T09:18:33;12.27;;;11.68;;
34737;SDS011;39910;47.154;27.614;2024-03-25T09:20:58;12.20;;;11.60;;
34737;SDS011;39910;47.154;27.614;2024-03-25T09:23:24;12.45;;;11.85;;
34737;SDS011;39910;47.154;27.614;2024-03-25T09:25:55;12.32;;;11.73;;
34737;SDS011;39910;47.154;27.614;2024-03-25T09:28:21;11.75;;;11.25;;
34737;SDS011;39910;47.154;27.614;2024-03-25T09:30:47;12.00;;;11.40;;
34737;SDS011;39910;47.154;27.614;2024-03-25T09:33:13;11.90;;;11.32;;
34737;SDS011;39910;47.154;27.614;2024-03-25T09:35:39;12.38;;;11.77;;
34737;SDS011;39910;47.154;27.614;2024-03-25T09:38:05;12.43;;;11.82;;
34737;SDS011;39910;47.154;27.614;2024-03-25T09:40:31;12.05;;;11.45;;
34737;SDS011;39910;47.154;27.614;2024-03-25T09:42:56;11.90;;;11.38;;
34737;SDS011;39910;47.154;27.614;2024-03-25T09:45:24;11.75;;;11.25;;
34737;SDS011;39910;47.154;27.614;2024-03-25T09:47:49;12.30;;;11.70;;
34737;SDS011;39910;47.154;27.614;2024-03-25T09:50:16;12.43;;;11.82;;
34737;SDS011;39910;47.154;27.614;2024-03-25T09:52:45;12.77;;;12.18;;
34737;SDS011;39910;47.154;27.614;2024-03-25T09:55:10;12.40;;;11.80;;
34737;SDS011;39910;47.154;27.614;2024-03-25T09:57:36;11.32;;;10.82;;
34737;SDS011;39910;47.154;27.614;2024-03-25T10:00:04;12.05;;;11.48;;
34737;SDS011;39910;47.154;27.614;2024-03-25T10:02:29;12.30;;;11.70;;
34737;SDS011;39910;47.154;27.614;2024-03-25T10:04:55;12.88;;;12.27;;
34737;SDS011;39910;47.154;27.614;2024-03-25T10:07:22;12.38;;;11.77;;
34737;SDS011;39910;47.154;27.614;2024-03-25T10:09:48;12.20;;;11.60;;
34737;SDS011;39910;47.154;27.614;2024-03-25T10:12:13;12.23;;;11.63;;
34737;SDS011;39910;47.154;27.614;2024-03-25T10:14:41;11.40;;;10.90;;
34737;SDS011;39910;47.154;27.614;2024-03-25T10:17:07;12.68;;;12.07;;
34737;SDS011;39910;47.154;27.614;2024-03-25T10:19:32;12.27;;;11.68;;
34737;SDS011;39910;47.154;27.614;2024-03-25T10:22:02;12.85;;;12.25;;
34737;SDS011;39910;47.154;27.614;2024-03-25T10:24:36;12.20;;;11.60;;
34737;SDS011;39910;47.154;27.614;2024-03-25T10:27:01;12.45;;;11.85;;
34737;SDS011;39910;47.154;27.614;2024-03-25T10:29:27;12.52;;;11.93;;
34737;SDS011;39910;47.154;27.614;2024-03-25T10:31:59;13.07;;;12.48;;
34737;SDS011;39910;47.154;27.614;2024-03-25T10:34:24;12.35;;;11.75;;
34737;SDS011;39910;47.154;27.614;2024-03-25T10:36:49;12.35;;;11.75;;
34737;SDS011;39910;47.154;27.614;2024-03-25T10:39:15;12.52;;;11.93;;
34737;SDS011;39910;47.154;27.614;2024-03-25T10:41:42;12.60;;;12.00;;
34737;SDS011;39910;47.154;27.614;2024-03-25T10:44:07;12.32;;;11.73;;
34737;SDS011;39910;47.154;27.614;2024-03-25T10:46:34;12.35;;;11.75;;
34737;SDS011;39910;47.154;27.614;2024-03-25T10:49:05;11.82;;;11.32;;
34737;SDS011;39910;47.154;27.614;2024-03-25T10:51:35;12.85;;;12.25;;
34737;SDS011;39910;47.154;27.614;2024-03-25T10:54:01;12.40;;;11.80;;
34737;SDS011;39910;47.154;27.614;2024-03-25T10:56:27;12.68;;;12.07;;
34737;SDS011;39910;47.154;27.614;2024-03-25T10:58:52;11.90;;;11.40;;
34737;SDS011;39910;47.154;27.614;2024-03-25T11:01:18;12.73;;;12.13;;
34737;SDS011;39910;47.154;27.614;2024-03-25T11:03:46;12.55;;;11.95;;
34737;SDS011;39910;47.154;27.614;2024-03-25T11:06:15;11.57;;;11.07;;
34737;SDS011;39910;47.154;27.614;2024-03-25T11:08:42;12.35;;;11.75;;
34737;SDS011;39910;47.154;27.614;2024-03-25T11:11:12;11.90;;;11.40;;
34737;SDS011;39910;47.154;27.614;2024-03-25T11:13:37;13.15;;;12.55;;
34737;SDS011;39910;47.154;27.614;2024-03-25T11:16:04;12.52;;;11.93;;
34737;SDS011;39910;47.154;27.614;2024-03-25T11:18:31;12.20;;;11.63;;
34737;SDS011;39910;47.154;27.614;2024-03-25T11:21:05;12.90;;;12.30;;
34737;SDS011;39910;47.154;27.614;2024-03-25T11:23:49;12.75;;;12.15;;
34737;SDS011;39910;47.154;27.614;2024-03-25T11:28:43;11.82;;;11.32;;
34737;SDS011;39910;47.154;27.614;2024-03-25T11:31:08;12.07;;;11.57;;
34737;SDS011;39910;47.154;27.614;2024-03-25T11:33:36;12.20;;;11.60;;
34737;SDS011;39910;47.154;27.614;2024-03-25T11:36:02;12.25;;;11.65;;
34737;SDS011;39910;47.154;27.614;2024-03-25T11:38:27;11.90;;;11.40;;
34737;SDS011;39910;47.154;27.614;2024-03-25T11:40:53;12.82;;;12.23;;
34737;SDS011;39910;47.154;27.614;2024-03-25T11:43:20;12.52;;;11.93;;
34737;SDS011;39910;47.154;27.614;2024-03-25T11:45:47;12.50;;;11.90;;
34737;SDS011;39910;47.154;27.614;2024-03-25T11:48:13;12.25;;;11.65;;
34737;SDS011;39910;47.154;27.614;2024-03-25T11:50:39;12.52;;;11.93;;
34737;SDS011;39910;47.154;27.614;2024-03-25T11:53:04;11.95;;;11.38;;
34737;SDS011;39910;47.154;27.614;2024-03-25T11:55:30;13.07;;;12.48;;
34737;SDS011;39910;47.154;27.614;2024-03-25T11:57:56;12.77;;;12.18;;
34737;SDS011;39910;47.154;27.614;2024-03-25T12:00:21;12.98;;;12.38;;
34737;SDS011;39910;47.154;27.614;2024-03-25T12:02:46;12.57;;;11.98;;
34737;SDS011;39910;47.154;27.614;2024-03-25T12:05:13;12.50;;;11.90;;
34737;SDS011;39910;47.154;27.614;2024-03-25T12:07:38;11.85;;;11.35;;
34737;SDS011;39910;47.154;27.614;2024-03-25T12:10:04;12.57;;;11.98;;
34737;SDS011;39910;47.154;27.614;2024-03-25T12:12:48;12.43;;;11.82;;
34737;SDS011;39910;47.154;27.614;2024-03-25T12:15:15;12.00;;;11.45;;
34737;SDS011;39910;47.154;27.614;2024-03-25T12:17:41;11.98;;;11.43;;
34737;SDS011;39910;47.154;27.614;2024-03-25T12:20:07;12.10;;;11.50;;
34737;SDS011;39910;47.154;27.614;2024-03-25T12:22:36;12.77;;;12.18;;
34737;SDS011;39910;47.154;27.614;2024-03-25T12:25:02;12.07;;;11.48;;
34737;SDS011;39910;47.154;27.614;2024-03-25T12:27:29;11.68;;;11.18;;
34737;SDS011;39910;47.154;27.614;2024-03-25T12:30:05;12.02;;;11.48;;
34737;SDS011;39910;47.154;27.614;2024-03-25T12:34:57;11.40;;;10.90;;
34737;SDS011;39910;47.154;27.614;2024-03-25T12:37:22;12.43;;;11.82;;
34737;SDS011;39910;47.154;27.614;2024-03-25T12:39:48;13.10;;;12.50;;
34737;SDS011;39910;47.154;27.614;2024-03-25T12:42:13;12.45;;;11.85;;
34737;SDS011;39910;47.154;27.614;2024-03-25T12:44:39;11.95;;;11.35;;
34737;SDS011;39910;47.154;27.614;2024-03-25T12:47:04;12.57;;;11.98;;
34737;SDS011;39910;47.154;27.614;2024-03-25T12:49:30;12.27;;;11.68;;
34737;SDS011;39910;47.154;27.614;2024-03-25T12:51:56;12.27;;;11.68;;
34737;SDS011;39910;47.154;27.614;2024-03-25T12:54:22;12.38;;;11.77;;
34737;SDS011;39910;47.154;27.614;2024-03-25T12:56:47;11.63;;;11.13;;
34737;SDS011;39910;47.154;27.614;2024-03-25T12:59:13;12.65;;;12.05;;
34737;SDS011;39910;47.154;27.614;2024-03-25T13:01:39;12.05;;;11.45;;
34737;SDS011;39910;47.154;27.614;2024-03-25T13:04:05;12.80;;;12.20;;
34737;SDS011;39910;47.154;27.614;2024-03-25T13:06:31;12.20;;;11.60;;
34737;SDS011;39910;47.154;27.614;2024-03-25T13:08:56;12.60;;;12.00;;
34737;SDS011;39910;47.154;27.614;2024-03-25T13:11:22;13.00;;;12.40;;
34737;SDS011;39910;47.154;27.614;2024-03-25T13:13:47;12.27;;;11.68;;
34737;SDS011;39910;47.154;27.614;2024-03-25T13:16:13;12.20;;;11.60;;
34737;SDS011;39910;47.154;27.614;2024-03-25T13:18:38;12.23;;;11.63;;
34737;SDS011;39910;47.154;27.614;2024-03-25T13:21:04;13.13;;;12.52;;
34737;SDS011;39910;47.154;27.614;2024-03-25T13:23:29;12.48;;;11.88;;
34737;SDS011;39910;47.154;27.614;2024-03-25T13:25:54;12.48;;;11.88;;
34737;SDS011;39910;47.154;27.614;2024-03-25T13:28:20;13.60;;;12.93;;
34737;SDS011;39910;47.154;27.614;2024-03-25T13:33:31;11.98;;;11.43;;
34737;SDS011;39910;47.154;27.614;2024-03-25T13:35:56;12.52;;;11.93;;
34737;SDS011;39910;47.154;27.614;2024-03-25T13:38:21;11.30;;;10.80;;
34737;SDS011;39910;47.154;27.614;2024-03-25T13:40:47;12.20;;;11.60;;
34737;SDS011;39910;47.154;27.614;2024-03-25T13:43:12;12.55;;;11.95;;
34737;SDS011;39910;47.154;27.614;2024-03-25T13:45:40;12.95;;;12.35;;
34737;SDS011;39910;47.154;27.614;2024-03-25T13:48:11;12.70;;;12.10;;
34737;SDS011;39910;47.154;27.614;2024-03-25T13:50:36;12.55;;;11.95;;
34737;SDS011;39910;47.154;27.614;2024-03-25T13:53:02;12.75;;;12.15;;
34737;SDS011;39910;47.154;27.614;2024-03-25T13:55:27;12.95;;;12.35;;
34737;SDS011;39910;47.154;27.614;2024-03-25T13:57:53;11.93;;;11.35;;
34737;SDS011;39910;47.154;27.614;2024-03-25T14:00:19;11.75;;;11.25;;
34737;SDS011;39910;47.154;27.614;2024-03-25T14:02:47;13.13;;;12.52;;
34737;SDS011;39910;47.154;27.614;2024-03-25T14:05:12;12.48;;;11.88;;
34737;SDS011;39910;47.154;27.614;2024-03-25T14:07:37;12.93;;;12.32;;
34737;SDS011;39910;47.154;27.614;2024-03-25T14:10:03;12.38;;;11.77;;
34737;SDS011;39910;47.154;27.614;2024-03-25T14:12:29;12.40;;;11.80;;
34737;SDS011;39910;47.154;27.614;2024-03-25T14:14:54;12.65;;;12.05;;
34737;SDS011;39910;47.154;27.614;2024-03-25T14:17:20;12.70;;;12.10;;